sensor_id;sensor_type;location;lat;lon;timestamp;temperature;humidity
6662;DHT22;3367;48.714;8.994;2024-02-23T00:01:52;5.10;1.00
6662;DHT22;3367;48.714;8.994;2024-02-23T00:04:19;5.10;99.90
6662;DHT22;3367;48.714;8.994;2024-02-23T00:06:49;5.20;1.00
6662;DHT22;3367;48.714;8.994;2024-02-23T00:09:19;5.10;1.00
6662;DHT22;3367;48.714;8.994;2024-02-23T00:11:45;5.10;99.90
6662;DHT22;3367;48.714;8.994;2024-02-23T00:14:13;5.10;99.90
6662;DHT22;3367;48.714;8.994;2024-02-23T00:16:45;5.10;99.90
6662;DHT22;3367;48.714;8.994;2024-02-23T00:19:16;5.10;99.90
6662;DHT22;3367;48.714;8.994;2024-02-23T00:21:47;5.10;99.90
6662;DHT22;3367;48.714;8.994;2024-02-23T00:24:22;5.10;99.90
6662;DHT22;3367;48.714;8.994;2024-02-23T00:26:56;5.10;99.90
6662;DHT22;3367;48.714;8.994;2024-02-23T00:29:23;5.10;99.90
6662;DHT22;3367;48.714;8.994;2024-02-23T00:31:56;5.10;99.90
6662;DHT22;3367;48.714;8.994;2024-02-23T00:34:24;5.10;99.90
6662;DHT22;3367;48.714;8.994;2024-02-23T00:36:50;5.10;99.90
6662;DHT22;3367;48.714;8.994;2024-02-23T00:39:20;5.10;99.90
6662;DHT22;3367;48.714;8.994;2024-02-23T00:41:47;5.10;99.90
6662;DHT22;3367;48.714;8.994;2024-02-23T00:44:22;5.10;99.90
6662;DHT22;3367;48.714;8.994;2024-02-23T00:46:52;5.10;92.10
6662;DHT22;3367;48.714;8.994;2024-02-23T00:49:19;5.10;99.90
6662;DHT22;3367;48.714;8.994;2024-02-23T00:51:50;5.10;99.90
6662;DHT22;3367;48.714;8.994;2024-02-23T00:54:19;5.10;99.90
6662;DHT22;3367;48.714;8.994;2024-02-23T00:56:49;5.10;73.80
6662;DHT22;3367;48.714;8.994;2024-02-23T00:59:18;5.10;99.90
6662;DHT22;3367;48.714;8.994;2024-02-23T01:01:46;5.10;99.90
6662;DHT22;3367;48.714;8.994;2024-02-23T01:04:18;5.10;99.90
6662;DHT22;3367;48.714;8.994;2024-02-23T01:06:51;5.10;99.90
6662;DHT22;3367;48.714;8.994;2024-02-23T01:09:18;5.10;99.90
6662;DHT22;3367;48.714;8.994;2024-02-23T01:11:46;5.10;99.90
6662;DHT22;3367;48.714;8.994;2024-02-23T01:14:12;5.10;99.90
6662;DHT22;3367;48.714;8.994;2024-02-23T01:16:48;5.10;99.90
6662;DHT22;3367;48.714;8.994;2024-02-23T01:19:15;5.00;99.90
6662;DHT22;3367;48.714;8.994;2024-02-23T01:21:42;5.00;42.90
6662;DHT22;3367;48.714;8.994;2024-02-23T01:24:16;5.00;1.00
6662;DHT22;3367;48.714;8.994;2024-02-23T01:26:52;5.00;1.00
6662;DHT22;3367;48.714;8.994;2024-02-23T01:29:18;5.00;1.00
6662;DHT22;3367;48.714;8.994;2024-02-23T01:31:51;5.00;1.00
6662;DHT22;3367;48.714;8.994;2024-02-23T01:34:25;5.00;1.00
6662;DHT22;3367;48.714;8.994;2024-02-23T01:36:52;5.00;1.00
6662;DHT22;3367;48.714;8.994;2024-02-23T01:39:23;5.00;1.00
6662;DHT22;3367;48.714;8.994;2024-02-23T01:41:52;5.00;1.00
6662;DHT22;3367;48.714;8.994;2024-02-23T01:44:20;5.00;1.00
6662;DHT22;3367;48.714;8.994;2024-02-23T01:46:50;5.00;1.00
6662;DHT22;3367;48.714;8.994;2024-02-23T01:49:17;5.00;1.00
6662;DHT22;3367;48.714;8.994;2024-02-23T01:51:44;5.00;1.00
6662;DHT22;3367;48.714;8.994;2024-02-23T01:54:11;5.00;1.00
6662;DHT22;3367;48.714;8.994;2024-02-23T01:56:43;5.00;1.00
6662;DHT22;3367;48.714;8.994;2024-02-23T01:59:13;5.00;1.00
6662;DHT22;3367;48.714;8.994;2024-02-23T02:01:43;5.00;1.00
6662;DHT22;3367;48.714;8.994;2024-02-23T02:04:16;5.00;1.00
6662;DHT22;3367;48.714;8.994;2024-02-23T02:06:46;5.00;1.00
6662;DHT22;3367;48.714;8.994;2024-02-23T02:09:19;5.00;1.00
6662;DHT22;3367;48.714;8.994;2024-02-23T02:11:48;5.00;1.00
6662;DHT22;3367;48.714;8.994;2024-02-23T02:14:24;5.00;1.00
6662;DHT22;3367;48.714;8.994;2024-02-23T02:16:54;5.00;1.00
6662;DHT22;3367;48.714;8.994;2024-02-23T02:19:21;5.10;1.00
6662;DHT22;3367;48.714;8.994;2024-02-23T02:21:56;5.00;99.90
6662;DHT22;3367;48.714;8.994;2024-02-23T02:24:23;5.10;99.90
6662;DHT22;3367;48.714;8.994;2024-02-23T02:26:51;5.10;99.90
6662;DHT22;3367;48.714;8.994;2024-02-23T02:29:18;5.10;99.90
6662;DHT22;3367;48.714;8.994;2024-02-23T02:31:51;5.10;99.90
6662;DHT22;3367;48.714;8.994;2024-02-23T02:34:17;5.00;99.90
6662;DHT22;3367;48.714;8.994;2024-02-23T02:36:47;5.00;99.90
6662;DHT22;3367;48.714;8.994;2024-02-23T02:39:16;5.00;99.90
6662;DHT22;3367;48.714;8.994;2024-02-23T02:41:43;4.90;1.00
6662;DHT22;3367;48.714;8.994;2024-02-23T02:44:14;4.90;1.00
6662;DHT22;3367;48.714;8.994;2024-02-23T02:46:46;4.90;99.90
6662;DHT22;3367;48.714;8.994;2024-02-23T02:49:13;4.90;99.90
6662;DHT22;3367;48.714;8.994;2024-02-23T02:51:42;4.80;99.90
6662;DHT22;3367;48.714;8.994;2024-02-23T02:54:10;4.90;83.80
6662;DHT22;3367;48.714;8.994;2024-02-23T02:56:42;4.90;59.80
6662;DHT22;3367;48.714;8.994;2024-02-23T02:59:08;4.80;99.90
6662;DHT22;3367;48.714;8.994;2024-02-23T03:01:36;4.80;73.90
6662;DHT22;3367;48.714;8.994;2024-02-23T03:04:08;4.80;1.00
6662;DHT22;3367;48.714;8.994;2024-02-23T03:06:35;4.80;1.00
6662;DHT22;3367;48.714;8.994;2024-02-23T03:09:02;4.80;1.00
6662;DHT22;3367;48.714;8.994;2024-02-23T03:11:30;4.80;1.00
6662;DHT22;3367;48.714;8.994;2024-02-23T03:13:57;4.80;1.00
6662;DHT22;3367;48.714;8.994;2024-02-23T03:16:23;4.70;1.00
6662;DHT22;3367;48.714;8.994;2024-02-23T03:18:52;4.70;1.00
6662;DHT22;3367;48.714;8.994;2024-02-23T03:21:20;4.70;1.00
6662;DHT22;3367;48.714;8.994;2024-02-23T03:23:49;4.70;1.00
6662;DHT22;3367;48.714;8.994;2024-02-23T03:26:15;4.70;1.00
6662;DHT22;3367;48.714;8.994;2024-02-23T03:28:42;4.70;1.00
6662;DHT22;3367;48.714;8.994;2024-02-23T03:31:15;4.60;1.00
6662;DHT22;3367;48.714;8.994;2024-02-23T03:33:42;4.60;1.00
6662;DHT22;3367;48.714;8.994;2024-02-23T03:36:10;4.60;1.00
6662;DHT22;3367;48.714;8.994;2024-02-23T03:38:37;4.60;1.00
6662;DHT22;3367;48.714;8.994;2024-02-23T03:41:04;4.50;1.00
6662;DHT22;3367;48.714;8.994;2024-02-23T03:43:32;4.50;1.00
6662;DHT22;3367;48.714;8.994;2024-02-23T03:46:06;4.50;1.00
6662;DHT22;3367;48.714;8.994;2024-02-23T03:48:36;4.50;1.00
6662;DHT22;3367;48.714;8.994;2024-02-23T03:51:10;4.50;1.00
6662;DHT22;3367;48.714;8.994;2024-02-23T03:53:36;4.40;1.00
6662;DHT22;3367;48.714;8.994;2024-02-23T03:56:12;4.40;1.00
6662;DHT22;3367;48.714;8.994;2024-02-23T03:58:39;4.40;1.00
6662;DHT22;3367;48.714;8.994;2024-02-23T04:01:06;4.40;1.00
6662;DHT22;3367;48.714;8.994;2024-02-23T04:03:32;4.40;1.00
6662;DHT22;3367;48.714;8.994;2024-02-23T04:05:59;4.40;1.00
6662;DHT22;3367;48.714;8.994;2024-02-23T04:08:27;4.30;1.00
6662;DHT22;3367;48.714;8.994;2024-02-23T04:10:56;4.30;1.00
6662;DHT22;3367;48.714;8.994;2024-02-23T04:13:23;4.30;1.00
6662;DHT22;3367;48.714;8.994;2024-02-23T04:15:50;4.30;1.00
6662;DHT22;3367;48.714;8.994;2024-02-23T04:18:16;4.30;1.00
6662;DHT22;3367;48.714;8.994;2024-02-23T04:20:43;4.30;1.00
6662;DHT22;3367;48.714;8.994;2024-02-23T04:23:10;4.30;1.00
6662;DHT22;3367;48.714;8.994;2024-02-23T04:25:38;4.20;1.00
6662;DHT22;3367;48.714;8.994;2024-02-23T04:28:05;4.20;1.00
6662;DHT22;3367;48.714;8.994;2024-02-23T04:30:31;4.20;1.00
6662;DHT22;3367;48.714;8.994;2024-02-23T04:32:58;4.10;1.00
6662;DHT22;3367;48.714;8.994;2024-02-23T04:35:25;4.10;1.00
6662;DHT22;3367;48.714;8.994;2024-02-23T04:37:54;4.10;1.00
6662;DHT22;3367;48.714;8.994;2024-02-23T04:40:24;4.10;1.00
6662;DHT22;3367;48.714;8.994;2024-02-23T04:42:52;4.10;1.00
6662;DHT22;3367;48.714;8.994;2024-02-23T04:45:18;4.10;1.00
6662;DHT22;3367;48.714;8.994;2024-02-23T04:47:48;4.10;1.00
6662;DHT22;3367;48.714;8.994;2024-02-23T04:50:15;4.00;1.00
6662;DHT22;3367;48.714;8.994;2024-02-23T04:52:41;4.00;1.00
6662;DHT22;3367;48.714;8.994;2024-02-23T04:55:08;4.00;1.00
6662;DHT22;3367;48.714;8.994;2024-02-23T04:57:36;4.00;1.00
6662;DHT22;3367;48.714;8.994;2024-02-23T05:00:06;4.00;1.00
6662;DHT22;3367;48.714;8.994;2024-02-23T05:02:36;3.90;1.00
6662;DHT22;3367;48.714;8.994;2024-02-23T05:05:06;3.90;1.00
6662;DHT22;3367;48.714;8.994;2024-02-23T05:07:36;3.90;1.00
6662;DHT22;3367;48.714;8.994;2024-02-23T05:10:03;3.90;1.00
6662;DHT22;3367;48.714;8.994;2024-02-23T05:12:33;3.80;1.00
6662;DHT22;3367;48.714;8.994;2024-02-23T05:15:03;3.80;1.00
6662;DHT22;3367;48.714;8.994;2024-02-23T05:17:31;3.80;53.40
6662;DHT22;3367;48.714;8.994;2024-02-23T05:19:57;3.80;1.00
6662;DHT22;3367;48.714;8.994;2024-02-23T05:22:24;3.70;1.00
6662;DHT22;3367;48.714;8.994;2024-02-23T05:24:51;3.70;1.00
6662;DHT22;3367;48.714;8.994;2024-02-23T05:27:20;3.70;1.00
6662;DHT22;3367;48.714;8.994;2024-02-23T05:29:50;3.70;2.10
6662;DHT22;3367;48.714;8.994;2024-02-23T05:32:16;3.60;21.40
6662;DHT22;3367;48.714;8.994;2024-02-23T05:34:48;3.60;94.40
6662;DHT22;3367;48.714;8.994;2024-02-23T05:37:16;3.60;91.10
6662;DHT22;3367;48.714;8.994;2024-02-23T05:39:46;3.70;99.90
6662;DHT22;3367;48.714;8.994;2024-02-23T05:42:13;3.60;99.90
6662;DHT22;3367;48.714;8.994;2024-02-23T05:44:49;3.60;99.90
6662;DHT22;3367;48.714;8.994;2024-02-23T05:47:15;3.60;99.90
6662;DHT22;3367;48.714;8.994;2024-02-23T05:49:44;3.60;99.90
6662;DHT22;3367;48.714;8.994;2024-02-23T05:52:14;3.60;99.90
6662;DHT22;3367;48.714;8.994;2024-02-23T05:54:41;3.50;99.90
6662;DHT22;3367;48.714;8.994;2024-02-23T05:57:10;3.50;99.90
6662;DHT22;3367;48.714;8.994;2024-02-23T05:59:37;3.60;99.90
6662;DHT22;3367;48.714;8.994;2024-02-23T06:02:09;3.60;99.90
6662;DHT22;3367;48.714;8.994;2024-02-23T06:04:36;3.60;99.90
6662;DHT22;3367;48.714;8.994;2024-02-23T06:07:04;3.60;99.90
6662;DHT22;3367;48.714;8.994;2024-02-23T06:09:31;3.50;99.90
6662;DHT22;3367;48.714;8.994;2024-02-23T06:11:58;3.50;99.90
6662;DHT22;3367;48.714;8.994;2024-02-23T06:14:35;3.60;99.90
6662;DHT22;3367;48.714;8.994;2024-02-23T06:17:04;3.60;99.90
6662;DHT22;3367;48.714;8.994;2024-02-23T06:19:32;3.60;99.90
6662;DHT22;3367;48.714;8.994;2024-02-23T06:21:58;3.60;99.90
6662;DHT22;3367;48.714;8.994;2024-02-23T06:24:29;3.70;99.90
6662;DHT22;3367;48.714;8.994;2024-02-23T06:26:56;3.70;99.90
6662;DHT22;3367;48.714;8.994;2024-02-23T06:29:23;3.70;99.90
6662;DHT22;3367;48.714;8.994;2024-02-23T06:31:50;3.70;1.00
6662;DHT22;3367;48.714;8.994;2024-02-23T06:34:17;3.80;1.00
6662;DHT22;3367;48.714;8.994;2024-02-23T06:36:44;3.80;1.00
6662;DHT22;3367;48.714;8.994;2024-02-23T06:39:11;3.80;1.00
6662;DHT22;3367;48.714;8.994;2024-02-23T06:41:39;3.90;1.00
6662;DHT22;3367;48.714;8.994;2024-02-23T06:44:06;3.90;1.00
6662;DHT22;3367;48.714;8.994;2024-02-23T06:46:32;4.00;1.00
6662;DHT22;3367;48.714;8.994;2024-02-23T06:48:59;4.00;1.00
6662;DHT22;3367;48.714;8.994;2024-02-23T06:51:26;4.00;1.00
6662;DHT22;3367;48.714;8.994;2024-02-23T06:53:53;4.00;1.00
6662;DHT22;3367;48.714;8.994;2024-02-23T06:56:20;4.10;1.00
6662;DHT22;3367;48.714;8.994;2024-02-23T06:58:48;4.00;1.00
6662;DHT22;3367;48.714;8.994;2024-02-23T07:01:15;4.00;1.00
6662;DHT22;3367;48.714;8.994;2024-02-23T07:03:42;4.00;1.00
6662;DHT22;3367;48.714;8.994;2024-02-23T07:06:10;4.00;1.00
6662;DHT22;3367;48.714;8.994;2024-02-23T07:08:40;4.00;1.00
6662;DHT22;3367;48.714;8.994;2024-02-23T07:11:07;4.00;1.00
6662;DHT22;3367;48.714;8.994;2024-02-23T07:13:34;4.00;1.00
6662;DHT22;3367;48.714;8.994;2024-02-23T07:16:02;4.10;1.00
6662;DHT22;3367;48.714;8.994;2024-02-23T07:18:29;4.10;1.00
6662;DHT22;3367;48.714;8.994;2024-02-23T07:20:56;4.10;1.00
6662;DHT22;3367;48.714;8.994;2024-02-23T07:23:23;4.10;1.00
6662;DHT22;3367;48.714;8.994;2024-02-23T07:25:50;4.10;1.00
6662;DHT22;3367;48.714;8.994;2024-02-23T07:28:17;4.20;1.00
6662;DHT22;3367;48.714;8.994;2024-02-23T07:30:45;4.20;1.00
6662;DHT22;3367;48.714;8.994;2024-02-23T07:33:13;4.20;1.00
6662;DHT22;3367;48.714;8.994;2024-02-23T07:35:40;4.30;1.00
6662;DHT22;3367;48.714;8.994;2024-02-23T07:38:08;4.30;1.00
6662;DHT22;3367;48.714;8.994;2024-02-23T07:40:35;4.40;1.00
6662;DHT22;3367;48.714;8.994;2024-02-23T07:43:01;4.40;1.00
6662;DHT22;3367;48.714;8.994;2024-02-23T07:45:29;4.50;1.00
6662;DHT22;3367;48.714;8.994;2024-02-23T07:47:55;4.50;99.90
6662;DHT22;3367;48.714;8.994;2024-02-23T07:50:23;4.50;99.90
6662;DHT22;3367;48.714;8.994;2024-02-23T07:52:50;4.50;99.90
6662;DHT22;3367;48.714;8.994;2024-02-23T07:55:17;4.60;99.90
6662;DHT22;3367;48.714;8.994;2024-02-23T07:57:44;4.50;99.90
6662;DHT22;3367;48.714;8.994;2024-02-23T08:00:12;4.50;99.90
6662;DHT22;3367;48.714;8.994;2024-02-23T08:02:39;4.50;99.90
6662;DHT22;3367;48.714;8.994;2024-02-23T08:05:06;4.50;99.90
6662;DHT22;3367;48.714;8.994;2024-02-23T08:07:35;4.50;99.90
6662;DHT22;3367;48.714;8.994;2024-02-23T08:10:02;4.50;99.90
6662;DHT22;3367;48.714;8.994;2024-02-23T08:12:30;4.50;99.90
6662;DHT22;3367;48.714;8.994;2024-02-23T08:14:57;4.50;99.90
6662;DHT22;3367;48.714;8.994;2024-02-23T08:17:24;4.50;41.70
6662;DHT22;3367;48.714;8.994;2024-02-23T08:19:51;4.50;99.90
6662;DHT22;3367;48.714;8.994;2024-02-23T08:22:18;4.50;22.70
6662;DHT22;3367;48.714;8.994;2024-02-23T08:24:46;4.40;1.90
6662;DHT22;3367;48.714;8.994;2024-02-23T08:27:13;4.50;13.50
6662;DHT22;3367;48.714;8.994;2024-02-23T08:29:40;4.50;1.00
6662;DHT22;3367;48.714;8.994;2024-02-23T08:32:07;4.50;1.00
6662;DHT22;3367;48.714;8.994;2024-02-23T08:34:33;4.50;1.00
6662;DHT22;3367;48.714;8.994;2024-02-23T08:37:00;4.50;1.00
6662;DHT22;3367;48.714;8.994;2024-02-23T08:39:27;4.50;1.00
6662;DHT22;3367;48.714;8.994;2024-02-23T08:41:55;4.50;1.00
6662;DHT22;3367;48.714;8.994;2024-02-23T08:44:22;4.50;1.00
6662;DHT22;3367;48.714;8.994;2024-02-23T08:46:49;4.50;1.00
6662;DHT22;3367;48.714;8.994;2024-02-23T08:49:15;4.40;1.00
6662;DHT22;3367;48.714;8.994;2024-02-23T08:51:42;4.50;1.00
6662;DHT22;3367;48.714;8.994;2024-02-23T08:54:09;4.50;1.00
6662;DHT22;3367;48.714;8.994;2024-02-23T08:56:37;4.50;1.00
6662;DHT22;3367;48.714;8.994;2024-02-23T08:59:06;4.60;1.00
6662;DHT22;3367;48.714;8.994;2024-02-23T09:01:33;4.60;1.00
6662;DHT22;3367;48.714;8.994;2024-02-23T09:03:59;4.60;1.00
6662;DHT22;3367;48.714;8.994;2024-02-23T09:06:26;4.70;1.00
6662;DHT22;3367;48.714;8.994;2024-02-23T09:08:53;4.60;1.00
6662;DHT22;3367;48.714;8.994;2024-02-23T09:11:19;4.60;1.00
6662;DHT22;3367;48.714;8.994;2024-02-23T09:13:46;4.50;1.00
6662;DHT22;3367;48.714;8.994;2024-02-23T09:16:14;4.40;1.00
6662;DHT22;3367;48.714;8.994;2024-02-23T09:18:41;4.40;1.00
6662;DHT22;3367;48.714;8.994;2024-02-23T09:21:08;4.40;1.00
6662;DHT22;3367;48.714;8.994;2024-02-23T09:23:34;4.40;1.00
6662;DHT22;3367;48.714;8.994;2024-02-23T09:26:01;4.40;1.00
6662;DHT22;3367;48.714;8.994;2024-02-23T09:28:30;4.50;1.00
6662;DHT22;3367;48.714;8.994;2024-02-23T09:30:56;4.60;1.00
6662;DHT22;3367;48.714;8.994;2024-02-23T09:33:24;4.70;1.00
6662;DHT22;3367;48.714;8.994;2024-02-23T09:35:51;4.70;1.00
6662;DHT22;3367;48.714;8.994;2024-02-23T09:38:18;4.80;1.00
6662;DHT22;3367;48.714;8.994;2024-02-23T09:40:45;4.90;1.00
6662;DHT22;3367;48.714;8.994;2024-02-23T09:43:14;5.00;1.00
6662;DHT22;3367;48.714;8.994;2024-02-23T09:45:41;5.10;1.00
6662;DHT22;3367;48.714;8.994;2024-02-23T09:48:09;5.20;1.00
6662;DHT22;3367;48.714;8.994;2024-02-23T09:50:39;5.30;1.00
6662;DHT22;3367;48.714;8.994;2024-02-23T09:53:07;5.50;1.00
6662;DHT22;3367;48.714;8.994;2024-02-23T09:55:36;5.60;1.00
6662;DHT22;3367;48.714;8.994;2024-02-23T09:58:03;5.60;1.00
6662;DHT22;3367;48.714;8.994;2024-02-23T10:00:31;5.70;99.90
6662;DHT22;3367;48.714;8.994;2024-02-23T10:02:58;5.70;99.90
6662;DHT22;3367;48.714;8.994;2024-02-23T10:05:30;5.70;99.90
6662;DHT22;3367;48.714;8.994;2024-02-23T10:07:58;5.90;99.90
6662;DHT22;3367;48.714;8.994;2024-02-23T10:10:29;5.80;99.90
6662;DHT22;3367;48.714;8.994;2024-02-23T10:12:57;6.00;99.90
6662;DHT22;3367;48.714;8.994;2024-02-23T10:15:24;6.20;99.90
6662;DHT22;3367;48.714;8.994;2024-02-23T10:17:51;6.30;99.90
6662;DHT22;3367;48.714;8.994;2024-02-23T10:20:19;6.30;99.90
6662;DHT22;3367;48.714;8.994;2024-02-23T10:22:46;6.40;99.90
6662;DHT22;3367;48.714;8.994;2024-02-23T10:25:14;6.40;99.90
6662;DHT22;3367;48.714;8.994;2024-02-23T10:27:41;6.50;99.90
6662;DHT22;3367;48.714;8.994;2024-02-23T10:30:09;6.60;99.90
6662;DHT22;3367;48.714;8.994;2024-02-23T10:32:38;6.70;99.90
6662;DHT22;3367;48.714;8.994;2024-02-23T10:35:09;6.80;99.90
6662;DHT22;3367;48.714;8.994;2024-02-23T10:37:36;6.80;96.30
6662;DHT22;3367;48.714;8.994;2024-02-23T10:40:04;6.70;1.00
6662;DHT22;3367;48.714;8.994;2024-02-23T10:42:36;6.80;1.00
6662;DHT22;3367;48.714;8.994;2024-02-23T10:45:05;6.90;1.00
6662;DHT22;3367;48.714;8.994;2024-02-23T10:47:34;6.80;1.00
6662;DHT22;3367;48.714;8.994;2024-02-23T10:50:01;6.80;1.00
6662;DHT22;3367;48.714;8.994;2024-02-23T10:52:31;6.80;1.00
6662;DHT22;3367;48.714;8.994;2024-02-23T10:55:00;6.60;1.00
6662;DHT22;3367;48.714;8.994;2024-02-23T10:57:30;6.80;1.00
6662;DHT22;3367;48.714;8.994;2024-02-23T10:59:58;6.90;1.00
6662;DHT22;3367;48.714;8.994;2024-02-23T11:02:27;7.00;1.00
6662;DHT22;3367;48.714;8.994;2024-02-23T11:04:56;7.00;1.00
6662;DHT22;3367;48.714;8.994;2024-02-23T11:07:24;7.00;1.00
6662;DHT22;3367;48.714;8.994;2024-02-23T11:09:54;7.30;1.00
6662;DHT22;3367;48.714;8.994;2024-02-23T11:12:24;7.40;1.00
6662;DHT22;3367;48.714;8.994;2024-02-23T11:14:51;7.50;1.00
6662;DHT22;3367;48.714;8.994;2024-02-23T11:17:20;7.50;1.00
6662;DHT22;3367;48.714;8.994;2024-02-23T11:19:49;7.60;1.00
6662;DHT22;3367;48.714;8.994;2024-02-23T11:22:24;7.60;1.00
6662;DHT22;3367;48.714;8.994;2024-02-23T11:24:51;7.30;1.00
6662;DHT22;3367;48.714;8.994;2024-02-23T11:27:18;7.30;1.00
6662;DHT22;3367;48.714;8.994;2024-02-23T11:29:45;7.20;1.00
6662;DHT22;3367;48.714;8.994;2024-02-23T11:32:13;7.20;1.00
6662;DHT22;3367;48.714;8.994;2024-02-23T11:34:41;7.10;1.00
6662;DHT22;3367;48.714;8.994;2024-02-23T11:37:10;7.30;1.00
6662;DHT22;3367;48.714;8.994;2024-02-23T11:39:37;7.30;1.00
6662;DHT22;3367;48.714;8.994;2024-02-23T11:42:06;7.30;1.00
6662;DHT22;3367;48.714;8.994;2024-02-23T11:44:33;7.30;1.00
6662;DHT22;3367;48.714;8.994;2024-02-23T11:47:00;7.20;1.00
6662;DHT22;3367;48.714;8.994;2024-02-23T11:49:30;7.40;1.00
6662;DHT22;3367;48.714;8.994;2024-02-23T11:51:59;7.40;1.00
6662;DHT22;3367;48.714;8.994;2024-02-23T11:54:25;7.50;1.00
6662;DHT22;3367;48.714;8.994;2024-02-23T11:56:52;7.60;1.00
6662;DHT22;3367;48.714;8.994;2024-02-23T11:59:19;7.70;1.00
6662;DHT22;3367;48.714;8.994;2024-02-23T12:01:46;7.80;1.00
6662;DHT22;3367;48.714;8.994;2024-02-23T12:04:14;7.70;1.00
6662;DHT22;3367;48.714;8.994;2024-02-23T12:06:42;7.70;1.00
6662;DHT22;3367;48.714;8.994;2024-02-23T12:09:10;7.80;1.00
6662;DHT22;3367;48.714;8.994;2024-02-23T12:11:37;7.90;1.00
6662;DHT22;3367;48.714;8.994;2024-02-23T12:14:05;8.00;1.00
6662;DHT22;3367;48.714;8.994;2024-02-23T12:16:33;8.00;1.00
6662;DHT22;3367;48.714;8.994;2024-02-23T12:19:01;8.00;1.00
6662;DHT22;3367;48.714;8.994;2024-02-23T12:21:28;8.10;1.00
6662;DHT22;3367;48.714;8.994;2024-02-23T12:23:54;8.10;1.00
6662;DHT22;3367;48.714;8.994;2024-02-23T12:26:23;8.00;1.00
6662;DHT22;3367;48.714;8.994;2024-02-23T12:28:49;7.90;1.00
6662;DHT22;3367;48.714;8.994;2024-02-23T12:31:16;7.80;1.00
6662;DHT22;3367;48.714;8.994;2024-02-23T12:33:50;7.90;1.00
6662;DHT22;3367;48.714;8.994;2024-02-23T12:36:17;7.80;1.00
6662;DHT22;3367;48.714;8.994;2024-02-23T12:38:44;7.60;1.00
6662;DHT22;3367;48.714;8.994;2024-02-23T12:41:10;7.60;1.00
6662;DHT22;3367;48.714;8.994;2024-02-23T12:43:39;7.60;1.00
6662;DHT22;3367;48.714;8.994;2024-02-23T12:46:05;7.70;1.00
6662;DHT22;3367;48.714;8.994;2024-02-23T12:48:34;7.70;1.00
6662;DHT22;3367;48.714;8.994;2024-02-23T12:51:00;7.60;1.00
6662;DHT22;3367;48.714;8.994;2024-02-23T12:53:32;7.50;1.00
6662;DHT22;3367;48.714;8.994;2024-02-23T12:56:01;7.60;1.00
6662;DHT22;3367;48.714;8.994;2024-02-23T12:58:28;7.60;1.00
6662;DHT22;3367;48.714;8.994;2024-02-23T13:00:57;7.70;1.00
6662;DHT22;3367;48.714;8.994;2024-02-23T13:03:24;7.70;1.00
6662;DHT22;3367;48.714;8.994;2024-02-23T13:05:52;7.80;1.00
6662;DHT22;3367;48.714;8.994;2024-02-23T13:08:18;7.80;1.00
6662;DHT22;3367;48.714;8.994;2024-02-23T13:10:45;7.80;1.00
6662;DHT22;3367;48.714;8.994;2024-02-23T13:13:12;7.90;1.00
6662;DHT22;3367;48.714;8.994;2024-02-23T13:15:40;7.90;1.00
6662;DHT22;3367;48.714;8.994;2024-02-23T13:18:08;7.90;1.00
6662;DHT22;3367;48.714;8.994;2024-02-23T13:20:35;8.10;1.00
6662;DHT22;3367;48.714;8.994;2024-02-23T13:23:02;8.00;1.00
6662;DHT22;3367;48.714;8.994;2024-02-23T13:25:29;8.00;1.00
6662;DHT22;3367;48.714;8.994;2024-02-23T13:27:56;8.10;1.00
6662;DHT22;3367;48.714;8.994;2024-02-23T13:30:23;8.00;1.00
6662;DHT22;3367;48.714;8.994;2024-02-23T13:32:49;8.00;1.00
6662;DHT22;3367;48.714;8.994;2024-02-23T13:35:18;8.00;1.00
6662;DHT22;3367;48.714;8.994;2024-02-23T13:37:44;8.10;1.00
6662;DHT22;3367;48.714;8.994;2024-02-23T13:40:11;8.00;1.00
6662;DHT22;3367;48.714;8.994;2024-02-23T13:42:38;8.00;1.00
6662;DHT22;3367;48.714;8.994;2024-02-23T13:45:06;8.00;1.00
6662;DHT22;3367;48.714;8.994;2024-02-23T13:47:34;8.00;1.00
6662;DHT22;3367;48.714;8.994;2024-02-23T13:50:01;8.00;1.00
6662;DHT22;3367;48.714;8.994;2024-02-23T13:52:29;8.00;1.00
6662;DHT22;3367;48.714;8.994;2024-02-23T13:54:56;8.00;1.00
6662;DHT22;3367;48.714;8.994;2024-02-23T13:57:23;8.00;1.00
6662;DHT22;3367;48.714;8.994;2024-02-23T13:59:50;8.00;1.00
6662;DHT22;3367;48.714;8.994;2024-02-23T14:02:23;8.00;1.00
6662;DHT22;3367;48.714;8.994;2024-02-23T14:04:50;8.10;1.00
6662;DHT22;3367;48.714;8.994;2024-02-23T14:07:17;8.00;1.00
6662;DHT22;3367;48.714;8.994;2024-02-23T14:09:45;8.00;1.00
6662;DHT22;3367;48.714;8.994;2024-02-23T14:12:12;8.10;1.00
6662;DHT22;3367;48.714;8.994;2024-02-23T14:14:40;8.10;1.00
6662;DHT22;3367;48.714;8.994;2024-02-23T14:17:07;8.10;1.00
6662;DHT22;3367;48.714;8.994;2024-02-23T14:19:33;8.30;1.00
6662;DHT22;3367;48.714;8.994;2024-02-23T14:22:00;8.50;1.00
6662;DHT22;3367;48.714;8.994;2024-02-23T14:24:27;8.60;1.00
6662;DHT22;3367;48.714;8.994;2024-02-23T14:26:55;8.70;1.00
6662;DHT22;3367;48.714;8.994;2024-02-23T14:29:22;8.80;1.00
6662;DHT22;3367;48.714;8.994;2024-02-23T14:31:48;8.80;1.00
6662;DHT22;3367;48.714;8.994;2024-02-23T14:34:15;8.70;1.00
6662;DHT22;3367;48.714;8.994;2024-02-23T14:36:42;8.50;1.00
6662;DHT22;3367;48.714;8.994;2024-02-23T14:39:09;8.30;1.00
6662;DHT22;3367;48.714;8.994;2024-02-23T14:41:38;8.20;1.00
6662;DHT22;3367;48.714;8.994;2024-02-23T14:44:06;8.10;1.00
6662;DHT22;3367;48.714;8.994;2024-02-23T14:46:33;7.90;1.00
6662;DHT22;3367;48.714;8.994;2024-02-23T14:48:59;8.00;1.00
6662;DHT22;3367;48.714;8.994;2024-02-23T14:51:26;7.90;1.00
6662;DHT22;3367;48.714;8.994;2024-02-23T14:53:53;7.90;1.00
6662;DHT22;3367;48.714;8.994;2024-02-23T14:56:21;7.80;1.00
6662;DHT22;3367;48.714;8.994;2024-02-23T14:58:47;7.70;1.00
6662;DHT22;3367;48.714;8.994;2024-02-23T15:01:15;7.60;1.00
6662;DHT22;3367;48.714;8.994;2024-02-23T15:03:42;7.60;1.00
6662;DHT22;3367;48.714;8.994;2024-02-23T15:06:09;7.60;1.00
6662;DHT22;3367;48.714;8.994;2024-02-23T15:08:36;7.60;1.00
6662;DHT22;3367;48.714;8.994;2024-02-23T15:11:03;7.60;1.00
6662;DHT22;3367;48.714;8.994;2024-02-23T15:13:30;7.60;1.00
6662;DHT22;3367;48.714;8.994;2024-02-23T15:15:57;7.60;1.00
6662;DHT22;3367;48.714;8.994;2024-02-23T15:18:26;7.50;1.00
6662;DHT22;3367;48.714;8.994;2024-02-23T15:20:52;7.50;1.00
6662;DHT22;3367;48.714;8.994;2024-02-23T15:23:19;7.50;1.00
6662;DHT22;3367;48.714;8.994;2024-02-23T15:25:49;7.40;1.00
6662;DHT22;3367;48.714;8.994;2024-02-23T15:28:15;7.40;1.00
6662;DHT22;3367;48.714;8.994;2024-02-23T15:30:48;7.40;1.00
6662;DHT22;3367;48.714;8.994;2024-02-23T15:33:15;7.50;1.00
6662;DHT22;3367;48.714;8.994;2024-02-23T15:35:43;7.40;1.00
6662;DHT22;3367;48.714;8.994;2024-02-23T15:38:09;7.50;1.00
6662;DHT22;3367;48.714;8.994;2024-02-23T15:40:36;7.50;1.00
6662;DHT22;3367;48.714;8.994;2024-02-23T15:43:03;7.60;1.00
6662;DHT22;3367;48.714;8.994;2024-02-23T15:45:30;7.70;1.20
6662;DHT22;3367;48.714;8.994;2024-02-23T15:47:57;7.90;1.00
6662;DHT22;3367;48.714;8.994;2024-02-23T15:50:23;7.80;1.00
6662;DHT22;3367;48.714;8.994;2024-02-23T15:52:54;7.80;1.00
6662;DHT22;3367;48.714;8.994;2024-02-23T15:55:21;7.70;1.00
6662;DHT22;3367;48.714;8.994;2024-02-23T15:57:47;7.60;1.00
6662;DHT22;3367;48.714;8.994;2024-02-23T16:00:15;7.50;1.00
6662;DHT22;3367;48.714;8.994;2024-02-23T16:02:42;7.40;1.00
6662;DHT22;3367;48.714;8.994;2024-02-23T16:05:08;7.30;1.00
6662;DHT22;3367;48.714;8.994;2024-02-23T16:07:36;7.20;1.00
6662;DHT22;3367;48.714;8.994;2024-02-23T16:10:05;7.20;1.00
6662;DHT22;3367;48.714;8.994;2024-02-23T16:12:32;7.10;1.00
6662;DHT22;3367;48.714;8.994;2024-02-23T16:14:59;7.10;1.00
6662;DHT22;3367;48.714;8.994;2024-02-23T16:17:26;7.10;1.00
6662;DHT22;3367;48.714;8.994;2024-02-23T16:19:53;7.10;1.00
6662;DHT22;3367;48.714;8.994;2024-02-23T16:22:20;7.10;1.00
6662;DHT22;3367;48.714;8.994;2024-02-23T16:24:46;7.10;1.00
6662;DHT22;3367;48.714;8.994;2024-02-23T16:27:14;7.00;1.00
6662;DHT22;3367;48.714;8.994;2024-02-23T16:29:41;6.90;1.00
6662;DHT22;3367;48.714;8.994;2024-02-23T16:32:08;6.90;1.00
6662;DHT22;3367;48.714;8.994;2024-02-23T16:34:35;6.80;1.00